sensor_id;sensor_type;location;lat;lon;timestamp;P1;durP1;ratioP1;P2;durP2;ratioP2
47529;SDS011;33272;51.922;7.730;2022-08-19T00:00:37;6.20;;;5.43;;
47529;SDS011;33272;51.922;7.730;2022-08-19T00:03:05;6.20;;;5.60;;
47529;SDS011;33272;51.922;7.730;2022-08-19T00:05:32;7.67;;;5.30;;
47529;SDS011;33272;51.922;7.730;2022-08-19T00:08:01;6.60;;;5.90;;
47529;SDS011;33272;51.922;7.730;2022-08-19T00:10:29;6.10;;;5.50;;
47529;SDS011;33272;51.922;7.730;2022-08-19T00:12:56;6.47;;;5.67;;
47529;SDS011;33272;51.922;7.730;2022-08-19T00:15:23;6.07;;;5.47;;
47529;SDS011;33272;51.922;7.730;2022-08-19T00:17:50;7.90;;;5.83;;
47529;SDS011;33272;51.922;7.730;2022-08-19T00:20:18;8.47;;;6.40;;
47529;SDS011;33272;51.922;7.730;2022-08-19T00:22:47;6.87;;;6.27;;
47529;SDS011;33272;51.922;7.730;2022-08-19T00:25:16;8.03;;;6.37;;
47529;SDS011;33272;51.922;7.730;2022-08-19T00:27:43;7.57;;;6.40;;
47529;SDS011;33272;51.922;7.730;2022-08-19T00:30:10;7.13;;;6.43;;
47529;SDS011;33272;51.922;7.730;2022-08-19T00:32:39;7.17;;;6.20;;
47529;SDS011;33272;51.922;7.730;2022-08-19T00:35:06;7.47;;;6.40;;
47529;SDS011;33272;51.922;7.730;2022-08-19T00:37:35;7.00;;;6.23;;
47529;SDS011;33272;51.922;7.730;2022-08-19T00:40:08;7.73;;;6.90;;
47529;SDS011;33272;51.922;7.730;2022-08-19T00:42:39;8.37;;;6.47;;
47529;SDS011;33272;51.922;7.730;2022-08-19T00:45:09;8.30;;;6.70;;
47529;SDS011;33272;51.922;7.730;2022-08-19T00:47:39;6.07;;;5.47;;
47529;SDS011;33272;51.922;7.730;2022-08-19T00:50:06;7.20;;;6.50;;
47529;SDS011;33272;51.922;7.730;2022-08-19T00:52:37;7.00;;;6.30;;
47529;SDS011;33272;51.922;7.730;2022-08-19T00:55:11;7.27;;;6.53;;
47529;SDS011;33272;51.922;7.730;2022-08-19T00:57:48;9.00;;;7.57;;
47529;SDS011;33272;51.922;7.730;2022-08-19T01:00:20;7.90;;;7.10;;
47529;SDS011;33272;51.922;7.730;2022-08-19T01:02:50;7.63;;;6.83;;
47529;SDS011;33272;51.922;7.730;2022-08-19T01:05:20;8.30;;;7.40;;
47529;SDS011;33272;51.922;7.730;2022-08-19T01:07:52;8.73;;;7.57;;
47529;SDS011;33272;51.922;7.730;2022-08-19T01:10:21;10.03;;;7.60;;
47529;SDS011;33272;51.922;7.730;2022-08-19T01:12:54;10.50;;;8.17;;
47529;SDS011;33272;51.922;7.730;2022-08-19T01:15:23;9.73;;;7.53;;
47529;SDS011;33272;51.922;7.730;2022-08-19T01:17:55;8.00;;;7.30;;
47529;SDS011;33272;51.922;7.730;2022-08-19T01:20:25;8.73;;;7.83;;
47529;SDS011;33272;51.922;7.730;2022-08-19T01:22:55;9.50;;;7.80;;
47529;SDS011;33272;51.922;7.730;2022-08-19T01:25:26;10.30;;;7.97;;
47529;SDS011;33272;51.922;7.730;2022-08-19T01:27:58;9.67;;;8.17;;
47529;SDS011;33272;51.922;7.730;2022-08-19T01:30:27;8.10;;;7.30;;
47529;SDS011;33272;51.922;7.730;2022-08-19T01:32:57;8.47;;;7.57;;
47529;SDS011;33272;51.922;7.730;2022-08-19T01:35:26;10.67;;;8.43;;
47529;SDS011;33272;51.922;7.730;2022-08-19T01:37:57;9.20;;;8.30;;
47529;SDS011;33272;51.922;7.730;2022-08-19T01:40:32;9.20;;;7.37;;
47529;SDS011;33272;51.922;7.730;2022-08-19T01:43:03;8.67;;;7.77;;
47529;SDS011;33272;51.922;7.730;2022-08-19T01:45:32;8.73;;;7.83;;
47529;SDS011;33272;51.922;7.730;2022-08-19T01:48:00;9.00;;;7.87;;
47529;SDS011;33272;51.922;7.730;2022-08-19T01:50:27;9.20;;;8.27;;
47529;SDS011;33272;51.922;7.730;2022-08-19T01:52:56;8.80;;;7.80;;
47529;SDS011;33272;51.922;7.730;2022-08-19T01:55:24;8.83;;;7.93;;
47529;SDS011;33272;51.922;7.730;2022-08-19T01:57:53;8.97;;;8.07;;
47529;SDS011;33272;51.922;7.730;2022-08-19T02:00:26;10.27;;;9.17;;
47529;SDS011;33272;51.922;7.730;2022-08-19T02:02:56;9.23;;;8.23;;
47529;SDS011;33272;51.922;7.730;2022-08-19T02:05:24;8.70;;;7.30;;
47529;SDS011;33272;51.922;7.730;2022-08-19T02:07:51;9.33;;;8.40;;
47529;SDS011;33272;51.922;7.730;2022-08-19T02:10:20;9.07;;;7.73;;
47529;SDS011;33272;51.922;7.730;2022-08-19T02:12:48;8.67;;;7.77;;
47529;SDS011;33272;51.922;7.730;2022-08-19T02:15:16;10.53;;;8.23;;
47529;SDS011;33272;51.922;7.730;2022-08-19T02:17:44;9.73;;;7.93;;
47529;SDS011;33272;51.922;7.730;2022-08-19T02:20:13;8.77;;;7.97;;
47529;SDS011;33272;51.922;7.730;2022-08-19T02:22:41;8.77;;;7.77;;
47529;SDS011;33272;51.922;7.730;2022-08-19T02:25:09;10.10;;;8.40;;
47529;SDS011;33272;51.922;7.730;2022-08-19T02:27:38;9.10;;;8.10;;
47529;SDS011;33272;51.922;7.730;2022-08-19T02:30:07;8.50;;;7.60;;
47529;SDS011;33272;51.922;7.730;2022-08-19T02:32:38;10.43;;;9.20;;
47529;SDS011;33272;51.922;7.730;2022-08-19T02:35:06;12.80;;;9.07;;
47529;SDS011;33272;51.922;7.730;2022-08-19T02:37:34;11.00;;;9.67;;
47529;SDS011;33272;51.922;7.730;2022-08-19T02:40:19;11.27;;;9.50;;
47529;SDS011;33272;51.922;7.730;2022-08-19T02:42:47;11.07;;;8.40;;
47529;SDS011;33272;51.922;7.730;2022-08-19T02:45:15;10.30;;;9.20;;
47529;SDS011;33272;51.922;7.730;2022-08-19T02:47:42;11.50;;;7.87;;
47529;SDS011;33272;51.922;7.730;2022-08-19T02:50:09;8.87;;;7.97;;
47529;SDS011;33272;51.922;7.730;2022-08-19T02:52:37;10.03;;;8.20;;
47529;SDS011;33272;51.922;7.730;2022-08-19T02:55:05;12.50;;;10.20;;
47529;SDS011;33272;51.922;7.730;2022-08-19T02:57:33;13.07;;;10.43;;
47529;SDS011;33272;51.922;7.730;2022-08-19T03:00:02;11.37;;;10.13;;
47529;SDS011;33272;51.922;7.730;2022-08-19T03:02:33;10.27;;;9.20;;
47529;SDS011;33272;51.922;7.730;2022-08-19T03:05:00;11.17;;;9.73;;
47529;SDS011;33272;51.922;7.730;2022-08-19T03:07:29;10.23;;;9.23;;
47529;SDS011;33272;51.922;7.730;2022-08-19T03:09:57;12.07;;;10.40;;
47529;SDS011;33272;51.922;7.730;2022-08-19T03:12:24;14.43;;;11.30;;
47529;SDS011;33272;51.922;7.730;2022-08-19T03:14:51;13.60;;;11.30;;
47529;SDS011;33272;51.922;7.730;2022-08-19T03:17:20;13.60;;;10.70;;
47529;SDS011;33272;51.922;7.730;2022-08-19T03:19:47;12.80;;;10.77;;
47529;SDS011;33272;51.922;7.730;2022-08-19T03:22:14;14.23;;;11.30;;
47529;SDS011;33272;51.922;7.730;2022-08-19T03:24:41;11.70;;;10.00;;
47529;SDS011;33272;51.922;7.730;2022-08-19T03:27:08;10.30;;;9.13;;
47529;SDS011;33272;51.922;7.730;2022-08-19T03:29:37;10.87;;;9.47;;
47529;SDS011;33272;51.922;7.730;2022-08-19T03:32:05;11.87;;;9.50;;
47529;SDS011;33272;51.922;7.730;2022-08-19T03:34:34;12.83;;;10.70;;
47529;SDS011;33272;51.922;7.730;2022-08-19T03:37:04;14.53;;;10.27;;
47529;SDS011;33272;51.922;7.730;2022-08-19T03:39:35;10.23;;;9.13;;
47529;SDS011;33272;51.922;7.730;2022-08-19T03:42:04;11.00;;;9.53;;
47529;SDS011;33272;51.922;7.730;2022-08-19T03:44:31;11.20;;;10.00;;
47529;SDS011;33272;51.922;7.730;2022-08-19T03:47:01;12.43;;;11.13;;
47529;SDS011;33272;51.922;7.730;2022-08-19T03:49:30;12.53;;;9.73;;
47529;SDS011;33272;51.922;7.730;2022-08-19T03:52:01;12.03;;;10.17;;
47529;SDS011;33272;51.922;7.730;2022-08-19T03:54:34;10.60;;;9.37;;
47529;SDS011;33272;51.922;7.730;2022-08-19T03:57:03;12.17;;;9.70;;
47529;SDS011;33272;51.922;7.730;2022-08-19T03:59:31;11.90;;;10.50;;
47529;SDS011;33272;51.922;7.730;2022-08-19T04:02:01;11.27;;;9.50;;
47529;SDS011;33272;51.922;7.730;2022-08-19T04:04:34;11.83;;;10.00;;
47529;SDS011;33272;51.922;7.730;2022-08-19T04:07:03;11.27;;;10.07;;
47529;SDS011;33272;51.922;7.730;2022-08-19T04:09:32;10.73;;;9.20;;
47529;SDS011;33272;51.922;7.730;2022-08-19T04:12:01;10.33;;;9.30;;
47529;SDS011;33272;51.922;7.730;2022-08-19T04:14:30;12.03;;;10.50;;
47529;SDS011;33272;51.922;7.730;2022-08-19T04:16:59;11.97;;;10.77;;
47529;SDS011;33272;51.922;7.730;2022-08-19T04:19:30;12.73;;;10.40;;
47529;SDS011;33272;51.922;7.730;2022-08-19T04:21:58;14.40;;;11.27;;
47529;SDS011;33272;51.922;7.730;2022-08-19T04:24:26;14.00;;;10.87;;
47529;SDS011;33272;51.922;7.730;2022-08-19T04:26:53;11.27;;;10.07;;
47529;SDS011;33272;51.922;7.730;2022-08-19T04:29:21;11.57;;;10.37;;
47529;SDS011;33272;51.922;7.730;2022-08-19T04:31:52;11.17;;;9.97;;
47529;SDS011;33272;51.922;7.730;2022-08-19T04:34:21;11.83;;;10.30;;
47529;SDS011;33272;51.922;7.730;2022-08-19T04:36:51;10.43;;;9.30;;
47529;SDS011;33272;51.922;7.730;2022-08-19T04:39:21;14.27;;;9.77;;
47529;SDS011;33272;51.922;7.730;2022-08-19T04:42:12;10.73;;;9.63;;
47529;SDS011;33272;51.922;7.730;2022-08-19T04:44:58;12.07;;;9.93;;
47529;SDS011;33272;51.922;7.730;2022-08-19T04:47:27;12.07;;;9.70;;
47529;SDS011;33272;51.922;7.730;2022-08-19T04:49:56;10.27;;;9.27;;
47529;SDS011;33272;51.922;7.730;2022-08-19T04:52:23;11.20;;;9.37;;
47529;SDS011;33272;51.922;7.730;2022-08-19T04:54:51;12.27;;;9.70;;
47529;SDS011;33272;51.922;7.730;2022-08-19T04:57:21;10.97;;;9.57;;
47529;SDS011;33272;51.922;7.730;2022-08-19T04:59:48;10.37;;;8.80;;
47529;SDS011;33272;51.922;7.730;2022-08-19T05:02:19;12.23;;;9.40;;
47529;SDS011;33272;51.922;7.730;2022-08-19T05:04:49;11.40;;;9.17;;
47529;SDS011;33272;51.922;7.730;2022-08-19T05:07:17;12.97;;;9.30;;
47529;SDS011;33272;51.922;7.730;2022-08-19T05:09:44;10.83;;;9.40;;
47529;SDS011;33272;51.922;7.730;2022-08-19T05:12:11;11.23;;;9.97;;
47529;SDS011;33272;51.922;7.730;2022-08-19T05:14:39;11.57;;;9.50;;
47529;SDS011;33272;51.922;7.730;2022-08-19T05:17:06;12.43;;;9.70;;
47529;SDS011;33272;51.922;7.730;2022-08-19T05:19:33;12.30;;;9.90;;
47529;SDS011;33272;51.922;7.730;2022-08-19T05:22:17;11.30;;;10.20;;
47529;SDS011;33272;51.922;7.730;2022-08-19T05:25:01;13.30;;;9.67;;
47529;SDS011;33272;51.922;7.730;2022-08-19T05:27:31;11.13;;;8.80;;
47529;SDS011;33272;51.922;7.730;2022-08-19T05:30:00;11.23;;;9.60;;
47529;SDS011;33272;51.922;7.730;2022-08-19T05:32:28;12.30;;;10.03;;
47529;SDS011;33272;51.922;7.730;2022-08-19T05:34:55;12.67;;;10.17;;
47529;SDS011;33272;51.922;7.730;2022-08-19T05:37:22;10.17;;;8.73;;
47529;SDS011;33272;51.922;7.730;2022-08-19T05:39:51;11.70;;;9.80;;
47529;SDS011;33272;51.922;7.730;2022-08-19T05:42:19;11.93;;;10.73;;
47529;SDS011;33272;51.922;7.730;2022-08-19T05:44:48;13.23;;;10.80;;
47529;SDS011;33272;51.922;7.730;2022-08-19T05:47:17;13.07;;;10.53;;
47529;SDS011;33272;51.922;7.730;2022-08-19T05:49:45;13.20;;;10.00;;
47529;SDS011;33272;51.922;7.730;2022-08-19T05:52:15;15.00;;;10.53;;
47529;SDS011;33272;51.922;7.730;2022-08-19T05:54:42;14.27;;;10.77;;
47529;SDS011;33272;51.922;7.730;2022-08-19T05:57:10;15.50;;;9.57;;
47529;SDS011;33272;51.922;7.730;2022-08-19T05:59:37;12.83;;;9.90;;
47529;SDS011;33272;51.922;7.730;2022-08-19T06:02:04;12.83;;;11.27;;
47529;SDS011;33272;51.922;7.730;2022-08-19T06:04:33;11.13;;;10.03;;
47529;SDS011;33272;51.922;7.730;2022-08-19T06:07:00;11.30;;;9.30;;
47529;SDS011;33272;51.922;7.730;2022-08-19T06:09:28;14.93;;;10.13;;
47529;SDS011;33272;51.922;7.730;2022-08-19T06:11:56;12.17;;;9.97;;
47529;SDS011;33272;51.922;7.730;2022-08-19T06:14:28;10.60;;;9.40;;
47529;SDS011;33272;51.922;7.730;2022-08-19T06:16:59;13.07;;;8.70;;
47529;SDS011;33272;51.922;7.730;2022-08-19T06:19:28;11.17;;;9.80;;
47529;SDS011;33272;51.922;7.730;2022-08-19T06:21:58;11.93;;;9.77;;
47529;SDS011;33272;51.922;7.730;2022-08-19T06:24:27;13.13;;;9.53;;
47529;SDS011;33272;51.922;7.730;2022-08-19T06:26:57;11.03;;;9.63;;
47529;SDS011;33272;51.922;7.730;2022-08-19T06:29:25;12.33;;;9.70;;
47529;SDS011;33272;51.922;7.730;2022-08-19T06:31:55;11.57;;;9.43;;
47529;SDS011;33272;51.922;7.730;2022-08-19T06:34:24;12.93;;;9.73;;
47529;SDS011;33272;51.922;7.730;2022-08-19T06:36:53;11.70;;;8.83;;
47529;SDS011;33272;51.922;7.730;2022-08-19T06:39:23;12.40;;;9.30;;
47529;SDS011;33272;51.922;7.730;2022-08-19T06:41:56;11.67;;;9.10;;
47529;SDS011;33272;51.922;7.730;2022-08-19T06:44:27;11.87;;;9.70;;
47529;SDS011;33272;51.922;7.730;2022-08-19T06:47:01;13.00;;;9.43;;
47529;SDS011;33272;51.922;7.730;2022-08-19T06:49:30;13.77;;;10.67;;
47529;SDS011;33272;51.922;7.730;2022-08-19T06:51:58;12.00;;;9.57;;
47529;SDS011;33272;51.922;7.730;2022-08-19T06:54:28;11.07;;;9.67;;
47529;SDS011;33272;51.922;7.730;2022-08-19T06:56:55;13.60;;;10.90;;
47529;SDS011;33272;51.922;7.730;2022-08-19T06:59:23;15.90;;;11.43;;
47529;SDS011;33272;51.922;7.730;2022-08-19T07:01:53;14.30;;;10.63;;
47529;SDS011;33272;51.922;7.730;2022-08-19T07:04:23;12.83;;;10.37;;
47529;SDS011;33272;51.922;7.730;2022-08-19T07:06:56;11.57;;;10.00;;
47529;SDS011;33272;51.922;7.730;2022-08-19T07:09:25;14.40;;;10.70;;
47529;SDS011;33272;51.922;7.730;2022-08-19T07:11:54;15.07;;;10.30;;
47529;SDS011;33272;51.922;7.730;2022-08-19T07:14:22;12.67;;;10.53;;
47529;SDS011;33272;51.922;7.730;2022-08-19T07:16:53;13.87;;;10.30;;
47529;SDS011;33272;51.922;7.730;2022-08-19T07:19:22;13.30;;;9.67;;
47529;SDS011;33272;51.922;7.730;2022-08-19T07:21:52;13.17;;;9.77;;
47529;SDS011;33272;51.922;7.730;2022-08-19T07:24:21;12.33;;;10.30;;
47529;SDS011;33272;51.922;7.730;2022-08-19T07:26:52;12.23;;;10.20;;
47529;SDS011;33272;51.922;7.730;2022-08-19T07:29:22;12.57;;;9.60;;
47529;SDS011;33272;51.922;7.730;2022-08-19T07:31:49;18.03;;;10.57;;
47529;SDS011;33272;51.922;7.730;2022-08-19T07:34:17;14.13;;;10.80;;
47529;SDS011;33272;51.922;7.730;2022-08-19T07:36:44;12.07;;;10.17;;
47529;SDS011;33272;51.922;7.730;2022-08-19T07:39:12;12.50;;;9.40;;
47529;SDS011;33272;51.922;7.730;2022-08-19T07:41:42;15.10;;;10.23;;
47529;SDS011;33272;51.922;7.730;2022-08-19T07:44:12;15.07;;;10.57;;
47529;SDS011;33272;51.922;7.730;2022-08-19T07:46:40;13.20;;;9.83;;
47529;SDS011;33272;51.922;7.730;2022-08-19T07:49:11;15.97;;;9.73;;
47529;SDS011;33272;51.922;7.730;2022-08-19T07:51:42;11.70;;;9.33;;
47529;SDS011;33272;51.922;7.730;2022-08-19T07:54:10;14.20;;;9.87;;
47529;SDS011;33272;51.922;7.730;2022-08-19T07:56:37;14.33;;;10.03;;
47529;SDS011;33272;51.922;7.730;2022-08-19T07:59:04;12.90;;;9.63;;
47529;SDS011;33272;51.922;7.730;2022-08-19T08:01:34;10.70;;;9.40;;
47529;SDS011;33272;51.922;7.730;2022-08-19T08:04:01;10.47;;;8.30;;
47529;SDS011;33272;51.922;7.730;2022-08-19T08:06:46;10.83;;;7.87;;
47529;SDS011;33272;51.922;7.730;2022-08-19T08:09:32;11.73;;;9.13;;
47529;SDS011;33272;51.922;7.730;2022-08-19T08:12:05;12.37;;;9.13;;
47529;SDS011;33272;51.922;7.730;2022-08-19T08:14:36;9.53;;;8.53;;
47529;SDS011;33272;51.922;7.730;2022-08-19T08:17:09;12.33;;;7.47;;
47529;SDS011;33272;51.922;7.730;2022-08-19T08:19:37;9.17;;;8.20;;
47529;SDS011;33272;51.922;7.730;2022-08-19T08:22:06;9.37;;;7.90;;
47529;SDS011;33272;51.922;7.730;2022-08-19T08:24:54;10.93;;;7.77;;
47529;SDS011;33272;51.922;7.730;2022-08-19T08:27:23;11.33;;;8.57;;
47529;SDS011;33272;51.922;7.730;2022-08-19T08:29:50;10.37;;;9.23;;
47529;SDS011;33272;51.922;7.730;2022-08-19T08:32:19;9.90;;;8.90;;
47529;SDS011;33272;51.922;7.730;2022-08-19T08:34:46;11.57;;;9.37;;
47529;SDS011;33272;51.922;7.730;2022-08-19T08:37:13;10.63;;;8.83;;
47529;SDS011;33272;51.922;7.730;2022-08-19T08:39:40;12.07;;;9.13;;
47529;SDS011;33272;51.922;7.730;2022-08-19T08:42:08;8.83;;;8.00;;
47529;SDS011;33272;51.922;7.730;2022-08-19T08:44:47;12.50;;;8.67;;
47529;SDS011;33272;51.922;7.730;2022-08-19T08:47:23;10.10;;;7.97;;
47529;SDS011;33272;51.922;7.730;2022-08-19T08:49:55;10.07;;;8.10;;
47529;SDS011;33272;51.922;7.730;2022-08-19T08:52:29;8.27;;;7.47;;
47529;SDS011;33272;51.922;7.730;2022-08-19T08:55:05;8.63;;;7.57;;
47529;SDS011;33272;51.922;7.730;2022-08-19T08:57:36;9.10;;;6.73;;
47529;SDS011;33272;51.922;7.730;2022-08-19T09:00:18;6.03;;;5.33;;
47529;SDS011;33272;51.922;7.730;2022-08-19T09:02:52;5.90;;;5.30;;
47529;SDS011;33272;51.922;7.730;2022-08-19T09:05:20;7.17;;;6.47;;
47529;SDS011;33272;51.922;7.730;2022-08-19T09:07:52;6.97;;;6.27;;
47529;SDS011;33272;51.922;7.730;2022-08-19T09:10:28;6.57;;;5.30;;
47529;SDS011;33272;51.922;7.730;2022-08-19T09:13:03;6.57;;;5.87;;
47529;SDS011;33272;51.922;7.730;2022-08-19T09:15:42;7.83;;;6.90;;
47529;SDS011;33272;51.922;7.730;2022-08-19T09:18:14;11.37;;;8.30;;
47529;SDS011;33272;51.922;7.730;2022-08-19T09:20:42;9.87;;;7.23;;
47529;SDS011;33272;51.922;7.730;2022-08-19T09:23:09;10.00;;;6.00;;
47529;SDS011;33272;51.922;7.730;2022-08-19T09:25:37;5.90;;;5.30;;
47529;SDS011;33272;51.922;7.730;2022-08-19T09:28:05;6.63;;;6.03;;
47529;SDS011;33272;51.922;7.730;2022-08-19T09:30:33;6.67;;;6.00;;
47529;SDS011;33272;51.922;7.730;2022-08-19T09:33:06;8.03;;;5.87;;
47529;SDS011;33272;51.922;7.730;2022-08-19T09:35:35;5.80;;;5.23;;
47529;SDS011;33272;51.922;7.730;2022-08-19T09:38:02;7.00;;;6.30;;
47529;SDS011;33272;51.922;7.730;2022-08-19T09:40:29;7.27;;;6.57;;
47529;SDS011;33272;51.922;7.730;2022-08-19T09:42:57;8.23;;;6.53;;
47529;SDS011;33272;51.922;7.730;2022-08-19T09:45:27;7.83;;;6.27;;
47529;SDS011;33272;51.922;7.730;2022-08-19T09:47:55;7.40;;;6.63;;
47529;SDS011;33272;51.922;7.730;2022-08-19T09:50:23;6.97;;;6.27;;
47529;SDS011;33272;51.922;7.730;2022-08-19T09:52:51;7.10;;;6.17;;
47529;SDS011;33272;51.922;7.730;2022-08-19T09:55:19;6.33;;;5.73;;
47529;SDS011;33272;51.922;7.730;2022-08-19T09:57:46;6.47;;;4.50;;
47529;SDS011;33272;51.922;7.730;2022-08-19T10:00:15;6.03;;;5.40;;
47529;SDS011;33272;51.922;7.730;2022-08-19T10:02:43;4.40;;;4.00;;
47529;SDS011;33272;51.922;7.730;2022-08-19T10:05:10;4.47;;;4.07;;
47529;SDS011;33272;51.922;7.730;2022-08-19T10:07:56;5.40;;;4.57;;
47529;SDS011;33272;51.922;7.730;2022-08-19T10:10:25;4.43;;;4.03;;
47529;SDS011;33272;51.922;7.730;2022-08-19T10:12:52;5.13;;;4.20;;
47529;SDS011;33272;51.922;7.730;2022-08-19T10:15:20;3.80;;;3.43;;
47529;SDS011;33272;51.922;7.730;2022-08-19T10:17:47;4.37;;;3.10;;
47529;SDS011;33272;51.922;7.730;2022-08-19T10:20:14;3.67;;;3.13;;
47529;SDS011;33272;51.922;7.730;2022-08-19T10:22:41;3.43;;;3.13;;
47529;SDS011;33272;51.922;7.730;2022-08-19T10:25:12;3.70;;;3.40;;
47529;SDS011;33272;51.922;7.730;2022-08-19T10:27:39;5.40;;;3.40;;
47529;SDS011;33272;51.922;7.730;2022-08-19T10:30:06;4.93;;;3.00;;
47529;SDS011;33272;51.922;7.730;2022-08-19T10:32:35;4.13;;;3.83;;
47529;SDS011;33272;51.922;7.730;2022-08-19T10:35:03;3.77;;;3.40;;
47529;SDS011;33272;51.922;7.730;2022-08-19T10:37:33;3.90;;;3.60;;
47529;SDS011;33272;51.922;7.730;2022-08-19T10:40:00;4.97;;;4.17;;
47529;SDS011;33272;51.922;7.730;2022-08-19T10:42:30;4.17;;;3.80;;
47529;SDS011;33272;51.922;7.730;2022-08-19T10:44:57;4.27;;;3.87;;
47529;SDS011;33272;51.922;7.730;2022-08-19T10:47:25;4.30;;;4.00;;
47529;SDS011;33272;51.922;7.730;2022-08-19T10:49:52;4.40;;;3.93;;
47529;SDS011;33272;51.922;7.730;2022-08-19T10:52:38;6.60;;;4.27;;
47529;SDS011;33272;51.922;7.730;2022-08-19T10:55:06;4.30;;;3.73;;
47529;SDS011;33272;51.922;7.730;2022-08-19T10:57:52;5.87;;;4.33;;
47529;SDS011;33272;51.922;7.730;2022-08-19T11:00:20;5.07;;;4.23;;
47529;SDS011;33272;51.922;7.730;2022-08-19T11:02:48;3.77;;;3.47;;
47529;SDS011;33272;51.922;7.730;2022-08-19T11:05:15;3.70;;;3.40;;
47529;SDS011;33272;51.922;7.730;2022-08-19T11:07:43;4.27;;;3.70;;
47529;SDS011;33272;51.922;7.730;2022-08-19T11:10:11;5.03;;;4.17;;
47529;SDS011;33272;51.922;7.730;2022-08-19T11:12:43;4.30;;;3.90;;
47529;SDS011;33272;51.922;7.730;2022-08-19T11:15:13;4.90;;;4.50;;
47529;SDS011;33272;51.922;7.730;2022-08-19T11:17:41;5.00;;;3.63;;
47529;SDS011;33272;51.922;7.730;2022-08-19T11:20:09;6.03;;;3.50;;
47529;SDS011;33272;51.922;7.730;2022-08-19T11:22:37;8.23;;;4.10;;
47529;SDS011;33272;51.922;7.730;2022-08-19T11:25:05;3.80;;;3.40;;
47529;SDS011;33272;51.922;7.730;2022-08-19T11:27:37;3.70;;;2.83;;
47529;SDS011;33272;51.922;7.730;2022-08-19T11:30:07;5.07;;;3.30;;
47529;SDS011;33272;51.922;7.730;2022-08-19T11:32:37;4.73;;;3.10;;
47529;SDS011;33272;51.922;7.730;2022-08-19T11:35:05;3.50;;;2.80;;
47529;SDS011;33272;51.922;7.730;2022-08-19T11:37:33;2.93;;;2.73;;
47529;SDS011;33272;51.922;7.730;2022-08-19T11:40:03;3.23;;;3.03;;
47529;SDS011;33272;51.922;7.730;2022-08-19T11:42:32;2.83;;;2.50;;
47529;SDS011;33272;51.922;7.730;2022-08-19T11:45:16;3.30;;;2.90;;
47529;SDS011;33272;51.922;7.730;2022-08-19T11:47:45;4.37;;;3.40;;
47529;SDS011;33272;51.922;7.730;2022-08-19T11:50:13;3.40;;;3.10;;
47529;SDS011;33272;51.922;7.730;2022-08-19T11:52:41;4.00;;;3.10;;
47529;SDS011;33272;51.922;7.730;2022-08-19T11:55:10;3.40;;;2.73;;
47529;SDS011;33272;51.922;7.730;2022-08-19T11:57:38;3.50;;;3.20;;
47529;SDS011;33272;51.922;7.730;2022-08-19T12:00:06;4.03;;;3.53;;
47529;SDS011;33272;51.922;7.730;2022-08-19T12:02:36;5.23;;;3.50;;
47529;SDS011;33272;51.922;7.730;2022-08-19T12:05:06;3.90;;;3.30;;
47529;SDS011;33272;51.922;7.730;2022-08-19T12:07:34;4.27;;;3.87;;
47529;SDS011;33272;51.922;7.730;2022-08-19T12:10:01;4.63;;;3.60;;
47529;SDS011;33272;51.922;7.730;2022-08-19T12:12:28;3.70;;;3.40;;
47529;SDS011;33272;51.922;7.730;2022-08-19T12:14:56;4.47;;;4.07;;
47529;SDS011;33272;51.922;7.730;2022-08-19T12:17:23;4.20;;;3.60;;
47529;SDS011;33272;51.922;7.730;2022-08-19T12:19:51;4.77;;;3.83;;
47529;SDS011;33272;51.922;7.730;2022-08-19T12:22:20;4.10;;;3.80;;
47529;SDS011;33272;51.922;7.730;2022-08-19T12:24:47;3.90;;;3.60;;
47529;SDS011;33272;51.922;7.730;2022-08-19T12:27:17;3.83;;;3.40;;
47529;SDS011;33272;51.922;7.730;2022-08-19T12:29:44;5.63;;;4.83;;
47529;SDS011;33272;51.922;7.730;2022-08-19T12:32:11;4.90;;;4.50;;
47529;SDS011;33272;51.922;7.730;2022-08-19T12:34:38;7.17;;;5.20;;
47529;SDS011;33272;51.922;7.730;2022-08-19T12:37:06;6.93;;;5.73;;
47529;SDS011;33272;51.922;7.730;2022-08-19T12:39:36;5.57;;;4.97;;
47529;SDS011;33272;51.922;7.730;2022-08-19T12:42:05;6.63;;;5.93;;
47529;SDS011;33272;51.922;7.730;2022-08-19T12:44:33;6.27;;;5.40;;
47529;SDS011;33272;51.922;7.730;2022-08-19T12:47:02;7.43;;;6.03;;
47529;SDS011;33272;51.922;7.730;2022-08-19T12:49:29;7.17;;;6.47;;
47529;SDS011;33272;51.922;7.730;2022-08-19T12:51:58;7.23;;;6.20;;
47529;SDS011;33272;51.922;7.730;2022-08-19T12:54:26;7.83;;;7.13;;
47529;SDS011;33272;51.922;7.730;2022-08-19T12:56:54;6.60;;;6.00;;
47529;SDS011;33272;51.922;7.730;2022-08-19T12:59:21;7.53;;;6.63;;
47529;SDS011;33272;51.922;7.730;2022-08-19T13:01:49;6.73;;;5.60;;
47529;SDS011;33272;51.922;7.730;2022-08-19T13:04:16;6.10;;;5.50;;
47529;SDS011;33272;51.922;7.730;2022-08-19T13:06:44;5.37;;;4.87;;
47529;SDS011;33272;51.922;7.730;2022-08-19T13:09:11;5.33;;;4.83;;
47529;SDS011;33272;51.922;7.730;2022-08-19T13:11:38;5.10;;;4.70;;
47529;SDS011;33272;51.922;7.730;2022-08-19T13:14:06;4.73;;;4.33;;
47529;SDS011;33272;51.922;7.730;2022-08-19T13:16:35;5.10;;;4.60;;
47529;SDS011;33272;51.922;7.730;2022-08-19T13:19:02;4.70;;;4.30;;
47529;SDS011;33272;51.922;7.730;2022-08-19T13:21:30;5.03;;;4.53;;
47529;SDS011;33272;51.922;7.730;2022-08-19T13:23:57;6.00;;;4.63;;
47529;SDS011;33272;51.922;7.730;2022-08-19T13:26:24;5.03;;;4.07;;
47529;SDS011;33272;51.922;7.730;2022-08-19T13:28:51;5.00;;;4.50;;
47529;SDS011;33272;51.922;7.730;2022-08-19T13:31:39;4.70;;;4.30;;
47529;SDS011;33272;51.922;7.730;2022-08-19T13:34:27;4.67;;;4.33;;
47529;SDS011;33272;51.922;7.730;2022-08-19T13:36:57;6.73;;;4.50;;
47529;SDS011;33272;51.922;7.730;2022-08-19T13:39:28;4.60;;;4.20;;
47529;SDS011;33272;51.922;7.730;2022-08-19T13:41:55;4.27;;;3.87;;
47529;SDS011;33272;51.922;7.730;2022-08-19T13:44:22;4.50;;;3.83;;
47529;SDS011;33272;51.922;7.730;2022-08-19T13:46:50;4.10;;;3.63;;
47529;SDS011;33272;51.922;7.730;2022-08-19T13:49:18;4.37;;;3.97;;
47529;SDS011;33272;51.922;7.730;2022-08-19T13:51:45;3.67;;;3.37;;
47529;SDS011;33272;51.922;7.730;2022-08-19T13:54:12;4.30;;;3.90;;
47529;SDS011;33272;51.922;7.730;2022-08-19T13:56:40;4.37;;;3.97;;
47529;SDS011;33272;51.922;7.730;2022-08-19T13:59:08;4.73;;;4.30;;
47529;SDS011;33272;51.922;7.730;2022-08-19T14:01:35;5.20;;;4.70;;
47529;SDS011;33272;51.922;7.730;2022-08-19T14:04:05;7.53;;;4.33;;
47529;SDS011;33272;51.922;7.730;2022-08-19T14:06:33;4.73;;;4.27;;
47529;SDS011;33272;51.922;7.730;2022-08-19T14:09:00;5.07;;;4.37;;
47529;SDS011;33272;51.922;7.730;2022-08-19T14:11:28;5.00;;;4.27;;
47529;SDS011;33272;51.922;7.730;2022-08-19T14:13:55;4.60;;;4.20;;
47529;SDS011;33272;51.922;7.730;2022-08-19T14:16:22;4.17;;;3.77;;
47529;SDS011;33272;51.922;7.730;2022-08-19T14:18:49;5.43;;;4.77;;
47529;SDS011;33272;51.922;7.730;2022-08-19T14:21:20;5.30;;;4.33;;
47529;SDS011;33272;51.922;7.730;2022-08-19T14:23:50;4.60;;;4.20;;
47529;SDS011;33272;51.922;7.730;2022-08-19T14:26:18;4.90;;;4.00;;
47529;SDS011;33272;51.922;7.730;2022-08-19T14:28:46;6.17;;;3.93;;
47529;SDS011;33272;51.922;7.730;2022-08-19T14:31:14;5.07;;;4.57;;
47529;SDS011;33272;51.922;7.730;2022-08-19T14:33:44;4.40;;;4.00;;
47529;SDS011;33272;51.922;7.730;2022-08-19T14:36:13;5.40;;;4.90;;
47529;SDS011;33272;51.922;7.730;2022-08-19T14:38:41;4.57;;;4.17;;
47529;SDS011;33272;51.922;7.730;2022-08-19T14:41:10;4.87;;;4.37;;
47529;SDS011;33272;51.922;7.730;2022-08-19T14:43:42;6.10;;;4.67;;
47529;SDS011;33272;51.922;7.730;2022-08-19T14:46:11;5.73;;;5.20;;
47529;SDS011;33272;51.922;7.730;2022-08-19T14:48:39;4.10;;;3.70;;
47529;SDS011;33272;51.922;7.730;2022-08-19T14:51:06;4.37;;;3.83;;
47529;SDS011;33272;51.922;7.730;2022-08-19T14:53:34;5.17;;;4.47;;